Time;durP1;ratioP1;P1;durP2;ratioP2;P2;SDS_P1;SDS_P2;PMS_P1;PMS_P2;Temp;Humidity;BMP_temperature;BMP_pressure;BME280_temperature;BME280_humidity;BME280_pressure;Samples;Min_cycle;Max_cycle;Signal;HPM_P1;HPM_P2
2021/08/17 00:01:47;;;;;;;10.52;3.78;;;;;;;13.03;nan;100828.63;6267866;22;20007;-49
2021/08/17 00:04:13;;;;;;;5.97;3.25;;;;;;;13.12;nan;100820.88;6268748;22;20003;-48
2021/08/17 00:06:39;;;;;;;8.60;2.80;;;;;;;13.09;nan;100818.69;6267463;22;20019;-47
2021/08/17 00:09:05;;;;;;;9.10;3.05;;;;;;;13.08;nan;100817.88;6268594;22;20043;-46
2021/08/17 00:11:30;;;;;;;8.13;3.22;;;;;;;13.07;nan;100827.00;6268172;22;20249;-46
2021/08/17 00:13:56;;;;;;;7.30;2.88;;;;;;;13.02;nan;100821.63;6267980;22;20343;-47
2021/08/17 00:16:22;;;;;;;9.13;3.08;;;;;;;13.02;nan;100813.53;6242137;22;20008;-48
2021/08/17 00:18:47;;;;;;;7.63;2.92;;;;;;;13.07;nan;100810.88;6267412;22;20340;-47
2021/08/17 00:21:14;;;;;;;6.10;2.58;;;;;;;13.01;nan;100801.97;6240869;22;20043;-48
2021/08/17 00:23:39;;;;;;;10.18;2.78;;;;;;;13.12;nan;100800.16;6267578;22;20022;-48
2021/08/17 00:26:05;;;;;;;7.05;2.72;;;;;;;13.16;nan;100800.44;6267272;22;20004;-48
2021/08/17 00:28:31;;;;;;;7.00;2.50;;;;;;;13.23;nan;100798.31;6268263;22;19995;-47
2021/08/17 00:30:56;;;;;;;6.97;3.00;;;;;;;13.19;nan;100799.94;6241068;22;20034;-47
2021/08/17 00:33:22;;;;;;;5.85;2.80;;;;;;;13.25;nan;100790.78;6241697;22;20003;-47
2021/08/17 00:35:47;;;;;;;7.78;2.50;;;;;;;13.38;nan;100784.09;6261646;22;20000;-47
2021/08/17 00:38:13;;;;;;;10.00;2.53;;;;;;;13.34;nan;100786.53;6240851;22;20497;-48
2021/08/17 00:40:38;;;;;;;12.05;2.38;;;;;;;13.39;nan;100791.09;6266406;22;20000;-48
2021/08/17 00:43:08;;;;;;;7.35;2.13;;;;;;;13.44;nan;100785.72;6267354;22;20214;-46
2021/08/17 00:45:33;;;;;;;9.10;3.00;;;;;;;13.33;nan;100781.41;6268153;22;20034;-48
2021/08/17 00:47:59;;;;;;;7.88;2.55;;;;;;;13.37;nan;100775.22;6267515;22;20700;-48
2021/08/17 00:50:27;;;;;;;4.95;2.10;;;;;;;13.41;nan;100767.41;6267537;22;20004;-47
2021/08/17 00:52:54;;;;;;;8.10;2.30;;;;;;;13.33;nan;100766.06;6267110;22;20428;-49
2021/08/17 00:55:21;;;;;;;8.25;2.55;;;;;;;13.40;nan;100774.69;6268065;22;20003;-47
2021/08/17 00:57:47;;;;;;;3.88;1.95;;;;;;;13.37;nan;100764.47;6267962;22;20007;-47
2021/08/17 01:00:14;;;;;;;7.32;2.30;;;;;;;13.36;nan;100770.91;6267459;22;20019;-47
2021/08/17 01:02:43;;;;;;;8.50;2.85;;;;;;;13.47;nan;100772.56;6268078;22;20405;-47
2021/08/17 01:05:10;;;;;;;9.00;3.10;;;;;;;13.40;nan;100763.13;6268065;22;20003;-48
2021/08/17 01:07:37;;;;;;;8.23;2.10;;;;;;;13.29;nan;100776.56;6267310;22;20027;-46
2021/08/17 01:10:04;;;;;;;6.80;2.45;;;;;;;13.27;nan;100772.50;6240287;22;20034;-47
2021/08/17 01:12:30;;;;;;;8.57;2.60;;;;;;;13.31;nan;100776.28;6267709;22;20494;-46
2021/08/17 01:14:55;;;;;;;10.45;2.88;;;;;;;13.18;nan;100772.22;6267499;22;20170;-47
2021/08/17 01:17:21;;;;;;;5.00;2.28;;;;;;;13.23;nan;100761.47;6268283;22;20030;-47
2021/08/17 01:19:48;;;;;;;6.05;1.90;;;;;;;13.26;nan;100770.88;6267170;22;20050;-48
2021/08/17 01:22:14;;;;;;;5.32;2.20;;;;;;;13.21;nan;100773.56;6267356;22;20008;-48
2021/08/17 01:24:40;;;;;;;7.63;2.25;;;;;;;13.25;nan;100774.66;6267863;22;19999;-48
2021/08/17 01:27:05;;;;;;;6.13;2.17;;;;;;;13.15;nan;100770.03;6267973;22;20341;-47
2021/08/17 01:29:32;;;;;;;7.05;2.20;;;;;;;13.11;nan;100777.00;6267914;22;20339;-47
2021/08/17 01:31:58;;;;;;;5.50;2.28;;;;;;;13.14;nan;100764.91;6267499;22;20010;-47
2021/08/17 01:34:24;;;;;;;5.72;2.00;;;;;;;13.17;nan;100767.06;6267892;22;20004;-47
2021/08/17 01:36:50;;;;;;;5.32;2.15;;;;;;;13.26;nan;100763.63;6267429;22;20070;-49
2021/08/17 01:39:16;;;;;;;6.13;1.90;;;;;;;13.34;nan;100753.44;6240622;22;20003;-46
2021/08/17 01:41:42;;;;;;;5.38;2.10;;;;;;;13.20;nan;100759.31;6267591;22;20108;-48
2021/08/17 01:44:12;;;;;;;12.05;2.33;;;;;;;13.31;nan;100754.78;6267548;22;20007;-47
2021/08/17 01:46:42;;;;;;;7.05;2.70;;;;;;;13.28;nan;100748.03;6267905;22;20077;-47
2021/08/17 01:49:08;;;;;;;6.97;2.25;;;;;;;13.21;nan;100757.41;6267268;22;20609;-48
2021/08/17 01:51:34;;;;;;;8.40;2.38;;;;;;;13.13;nan;100752.53;6267421;22;19996;-47
2021/08/17 01:54:08;;;;;;;5.78;2.10;;;;;;;13.26;nan;100746.66;6267647;22;20522;-47
2021/08/17 01:56:34;;;;;;;7.38;2.40;;;;;;;12.92;nan;100744.38;6268062;22;20084;-47
2021/08/17 01:59:01;;;;;;;5.65;2.20;;;;;;;12.99;nan;100736.88;6267763;22;20499;-48
2021/08/17 02:01:27;;;;;;;7.53;2.25;;;;;;;13.12;nan;100738.28;6267790;22;20003;-47
2021/08/17 02:03:52;;;;;;;6.57;2.42;;;;;;;13.06;nan;100730.44;6268824;22;20070;-48
2021/08/17 02:06:18;;;;;;;6.13;2.00;;;;;;;12.92;nan;100728.25;6269310;22;20007;-48
2021/08/17 02:08:43;;;;;;;6.35;1.88;;;;;;;13.11;nan;100722.41;6268924;22;20317;-47
2021/08/17 02:11:09;;;;;;;7.80;2.72;;;;;;;13.08;nan;100722.91;6269697;22;20066;-47
2021/08/17 02:13:34;;;;;;;4.57;2.30;;;;;;;12.98;nan;100735.28;6269114;22;19995;-50
2021/08/17 02:16:01;;;;;;;6.30;2.22;;;;;;;13.01;nan;100726.66;6268330;22;20019;-48
2021/08/17 02:18:32;;;;;;;6.65;2.05;;;;;;;13.20;nan;100728.91;6243052;22;20007;-49
2021/08/17 02:20:58;;;;;;;12.57;2.42;;;;;;;13.18;nan;100729.16;6268483;22;20093;-47
2021/08/17 02:23:25;;;;;;;8.25;2.15;;;;;;;13.12;nan;100719.44;6240887;22;20097;-47
2021/08/17 02:25:50;;;;;;;4.90;2.45;;;;;;;13.10;nan;100718.88;6269124;22;20127;-47
2021/08/17 02:28:16;;;;;;;7.55;2.28;;;;;;;13.07;nan;100716.72;6242906;22;20027;-50
2021/08/17 02:30:41;;;;;;;3.85;1.55;;;;;;;13.11;nan;100722.41;6269195;22;20007;-47
2021/08/17 02:33:07;;;;;;;5.53;2.25;;;;;;;13.18;nan;100722.97;6269096;22;20004;-47
2021/08/17 02:35:33;;;;;;;7.60;2.10;;;;;;;13.13;nan;100710.31;6269553;22;20031;-46
2021/08/17 02:37:58;;;;;;;7.15;1.92;;;;;;;12.89;nan;100707.25;6268940;22;20496;-47
2021/08/17 02:40:24;;;;;;;3.13;1.88;;;;;;;12.93;nan;100708.38;6269074;22;20057;-48
2021/08/17 02:42:49;;;;;;;6.25;2.55;;;;;;;13.01;nan;100710.53;6242138;22;20000;-48
2021/08/17 02:45:15;;;;;;;5.32;2.42;;;;;;;13.05;nan;100707.31;6268285;22;20402;-48
2021/08/17 02:47:40;;;;;;;9.90;3.50;;;;;;;12.89;nan;100701.88;6268380;22;20480;-49
2021/08/17 02:50:07;;;;;;;5.55;2.08;;;;;;;12.82;nan;100712.09;6267598;22;20003;-49
2021/08/17 02:52:33;;;;;;;3.58;1.77;;;;;;;12.89;nan;100717.22;6241130;22;20154;-51
2021/08/17 02:54:59;;;;;;;8.73;2.70;;;;;;;12.66;nan;100707.72;6266521;22;20428;-48
2021/08/17 02:57:24;;;;;;;4.20;2.15;;;;;;;12.66;nan;100702.34;6269322;22;20010;-48
2021/08/17 02:59:50;;;;;;;5.90;1.70;;;;;;;12.58;nan;100706.34;6267614;22;20013;-47
2021/08/17 03:02:15;;;;;;;4.60;1.60;;;;;;;12.57;nan;100717.38;6268769;22;20096;-47
2021/08/17 03:04:42;;;;;;;8.02;2.05;;;;;;;12.53;nan;100703.63;6269397;22;20065;-46
2021/08/17 03:07:07;;;;;;;5.70;2.13;;;;;;;12.57;nan;100709.31;6269060;22;20452;-47
2021/08/17 03:09:33;;;;;;;6.07;2.10;;;;;;;12.44;nan;100709.78;6269117;22;20091;-47
2021/08/17 03:11:59;;;;;;;5.03;2.17;;;;;;;12.56;nan;100702.28;6268921;22;20345;-48
2021/08/17 03:14:24;;;;;;;5.68;1.90;;;;;;;12.47;nan;100710.06;6268800;22;20090;-47
2021/08/17 03:16:50;;;;;;;6.65;2.33;;;;;;;12.50;nan;100700.66;6268712;22;20006;-46
2021/08/17 03:19:15;;;;;;;7.60;2.22;;;;;;;12.42;nan;100699.28;6268764;22;20007;-47
2021/08/17 03:21:41;;;;;;;9.40;2.35;;;;;;;12.49;nan;100699.03;6267573;22;20035;-47
2021/08/17 03:24:07;;;;;;;6.38;2.28;;;;;;;12.50;nan;100697.97;6267881;22;20053;-47
2021/08/17 03:26:33;;;;;;;4.90;2.67;;;;;;;12.47;nan;100702.00;6269051;22;19999;-47
2021/08/17 03:28:58;;;;;;;8.50;2.28;;;;;;;12.49;nan;100699.03;6267970;22;20073;-48
2021/08/17 03:31:24;;;;;;;5.65;1.85;;;;;;;12.62;nan;100714.69;6268927;22;20004;-47
2021/08/17 03:33:51;;;;;;;6.10;1.98;;;;;;;12.48;nan;100711.66;6268706;22;20332;-48
2021/08/17 03:36:17;;;;;;;5.32;2.20;;;;;;;12.67;nan;100715.53;6268493;22;20026;-46
2021/08/17 03:38:42;;;;;;;9.55;2.53;;;;;;;12.64;nan;100712.56;6268080;22;20468;-49
2021/08/17 03:41:08;;;;;;;6.07;1.90;;;;;;;12.68;nan;100717.13;6268964;22;20317;-48
2021/08/17 03:43:33;;;;;;;8.27;2.10;;;;;;;12.72;nan;100709.34;6268528;22;20004;-47
2021/08/17 03:45:59;;;;;;;9.07;2.25;;;;;;;12.71;nan;100713.09;6268668;22;20375;-47
2021/08/17 03:48:25;;;;;;;6.68;2.13;;;;;;;12.49;nan;100717.84;6268633;22;20011;-47
2021/08/17 03:50:50;;;;;;;4.90;2.33;;;;;;;12.30;nan;100710.22;6266824;22;20009;-48
2021/08/17 03:53:16;;;;;;;8.40;2.63;;;;;;;12.31;nan;100706.47;6268517;22;20003;-47
2021/08/17 03:55:41;;;;;;;8.35;2.67;;;;;;;12.17;nan;100707.19;6268266;22;20376;-46
2021/08/17 03:58:08;;;;;;;12.73;3.25;;;;;;;12.16;nan;100711.75;6268499;22;20008;-49
2021/08/17 04:00:35;;;;;;;11.02;3.80;;;;;;;12.16;nan;100706.38;6268051;22;20003;-47
2021/08/17 04:03:01;;;;;;;6.47;2.67;;;;;;;12.22;nan;100713.41;6267933;22;20069;-46
2021/08/17 04:05:27;;;;;;;8.82;2.85;;;;;;;12.21;nan;100710.97;6267640;22;20065;-48
2021/08/17 04:07:53;;;;;;;8.65;2.65;;;;;;;12.23;nan;100717.72;6267708;22;20074;-47
2021/08/17 04:10:19;;;;;;;7.28;2.40;;;;;;;12.33;nan;100722.34;6267483;22;20486;-48
2021/08/17 04:12:45;;;;;;;8.52;2.70;;;;;;;12.31;nan;100721.78;6240917;22;20388;-47
2021/08/17 04:15:11;;;;;;;6.40;2.83;;;;;;;12.36;nan;100721.81;6268663;22;20004;-46
2021/08/17 04:17:37;;;;;;;6.22;2.60;;;;;;;12.39;nan;100735.56;6267896;22;20067;-48
2021/08/17 04:20:04;;;;;;;6.07;2.80;;;;;;;12.39;nan;100724.00;6239439;22;20003;-47
2021/08/17 04:22:30;;;;;;;7.97;2.75;;;;;;;12.47;nan;100725.38;6268240;22;20003;-49
2021/08/17 04:24:55;;;;;;;7.70;2.40;;;;;;;12.39;nan;100734.75;6267809;22;20344;-48
2021/08/17 04:27:21;;;;;;;9.20;2.78;;;;;;;12.55;nan;100735.59;6268257;22;20003;-48
2021/08/17 04:29:46;;;;;;;6.97;2.15;;;;;;;12.53;nan;100735.06;6267116;22;20010;-47
2021/08/17 04:32:13;;;;;;;11.35;2.78;;;;;;;12.48;nan;100740.44;6267534;22;20016;-48
2021/08/17 04:34:39;;;;;;;7.97;2.47;;;;;;;12.54;nan;100750.13;6267778;22;20030;-47
2021/08/17 04:37:05;;;;;;;6.25;2.80;;;;;;;12.51;nan;100756.03;6267619;22;20003;-49
2021/08/17 04:39:31;;;;;;;9.55;2.72;;;;;;;12.55;nan;100757.09;6239424;22;20030;-48
2021/08/17 04:41:56;;;;;;;11.93;2.67;;;;;;;12.64;nan;100764.44;6267249;22;20079;-48
2021/08/17 04:44:22;;;;;;;5.63;2.38;;;;;;;12.81;nan;100764.25;6267991;22;20012;-47
2021/08/17 04:46:48;;;;;;;7.35;2.42;;;;;;;12.98;nan;100772.13;6266674;22;20098;-47
2021/08/17 04:49:13;;;;;;;6.45;2.22;;;;;;;13.05;nan;100766.47;6266366;22;20007;-47
2021/08/17 04:51:39;;;;;;;8.30;2.28;;;;;;;13.11;nan;100768.94;6266580;22;20004;-48
2021/08/17 04:54:04;;;;;;;10.68;2.95;;;;;;;13.05;nan;100780.75;6267642;22;20432;-48
2021/08/17 04:56:30;;;;;;;11.07;2.83;;;;;;;13.23;nan;100785.69;6267822;22;20665;-47
2021/08/17 04:58:56;;;;;;;5.32;2.30;;;;;;;13.32;nan;100777.91;6266783;22;20003;-49
2021/08/17 05:01:21;;;;;;;4.90;2.10;;;;;;;13.39;nan;100785.72;6268268;22;20007;-48
2021/08/17 05:03:47;;;;;;;4.63;2.30;;;;;;;13.42;nan;100785.19;6266781;22;20003;-49
2021/08/17 05:06:12;;;;;;;6.45;2.33;;;;;;;13.29;nan;100791.91;6267690;22;20425;-48
2021/08/17 05:08:39;;;;;;;5.75;1.98;;;;;;;13.41;nan;100797.84;6265836;22;20322;-48
2021/08/17 05:11:05;;;;;;;7.88;2.00;;;;;;;13.47;nan;100802.19;6267084;22;20000;-48
2021/08/17 05:13:30;;;;;;;5.55;2.10;;;;;;;13.50;nan;100809.72;6266796;22;20003;-47
2021/08/17 05:15:57;;;;;;;7.22;2.10;;;;;;;13.51;nan;100807.84;6266698;22;20332;-48
2021/08/17 05:18:23;;;;;;;5.15;1.75;;;;;;;13.62;nan;100796.00;6267534;22;20424;-48
2021/08/17 05:20:48;;;;;;;3.17;2.00;;;;;;;13.56;nan;100803.25;6239494;22;20010;-48
2021/08/17 05:23:14;;;;;;;7.53;2.10;;;;;;;13.57;nan;100815.63;6268767;22;20328;-49
2021/08/17 05:25:39;;;;;;;7.32;2.08;;;;;;;13.71;nan;100804.38;6266960;22;20272;-48
2021/08/17 05:28:06;;;;;;;9.27;1.98;;;;;;;13.98;nan;100802.22;6266413;22;20004;-48
2021/08/17 05:30:31;;;;;;;11.65;1.90;;;;;;;14.03;nan;100802.25;6265879;22;19999;-50
2021/08/17 05:32:57;;;;;;;7.07;1.63;;;;;;;14.00;nan;100810.03;6265310;22;20014;-49
2021/08/17 05:35:22;;;;;;;8.88;1.80;;;;;;;14.03;nan;100804.94;6266518;22;20479;-48
2021/08/17 05:37:48;;;;;;;4.85;2.10;;;;;;;13.96;nan;100825.94;6265348;22;19996;-48
2021/08/17 05:40:14;;;;;;;5.18;1.58;;;;;;;14.02;nan;100821.38;6240585;22;20303;-48
2021/08/17 05:42:39;;;;;;;8.05;2.28;;;;;;;13.83;nan;100818.41;6267241;22;20019;-48
2021/08/17 05:45:05;;;;;;;5.15;1.63;;;;;;;13.96;nan;100827.81;6268500;22;20405;-49
2021/08/17 05:47:31;;;;;;;3.90;1.88;;;;;;;13.93;nan;100834.53;6268600;22;20004;-47
2021/08/17 05:49:58;;;;;;;4.35;1.70;;;;;;;14.05;nan;100831.59;6268463;22;20110;-48
2021/08/17 05:52:23;;;;;;;8.18;1.88;;;;;;;14.12;nan;100829.44;6269352;22;20384;-48
2021/08/17 05:54:49;;;;;;;4.50;1.90;;;;;;;14.34;nan;100821.88;6268503;22;20038;-47
2021/08/17 05:57:15;;;;;;;5.35;1.88;;;;;;;14.32;nan;100825.94;6267958;22;20014;-48
2021/08/17 05:59:40;;;;;;;8.13;1.85;;;;;;;14.39;nan;100821.09;6265340;22;20004;-48
2021/08/17 06:02:06;;;;;;;3.65;1.63;;;;;;;14.52;nan;100829.44;6266562;22;20000;-48
2021/08/17 06:04:31;;;;;;;4.78;1.33;;;;;;;14.60;nan;100838.88;6239461;22;20010;-47
2021/08/17 06:06:57;;;;;;;4.93;1.88;;;;;;;14.62;nan;100830.50;6265363;22;20007;-48
2021/08/17 06:09:23;;;;;;;8.15;1.73;;;;;;;14.60;nan;100838.88;6262404;22;19999;-48
2021/08/17 06:11:52;;;;;;;3.47;1.80;;;;;;;14.54;nan;100834.53;6239040;22;19999;-49
2021/08/17 06:14:17;;;;;;;5.30;1.70;;;;;;;14.50;nan;100844.28;6264822;22;20004;-48
2021/08/17 06:16:43;;;;;;;4.88;1.95;;;;;;;14.72;nan;100842.09;6266362;22;20011;-47
2021/08/17 06:19:09;;;;;;;6.75;2.20;;;;;;;14.68;nan;100832.91;6265500;22;20523;-48
2021/08/17 06:21:35;;;;;;;4.75;1.25;;;;;;;14.74;nan;100839.94;6267400;22;20003;-48
2021/08/17 06:24:03;;;;;;;4.93;1.63;;;;;;;14.75;nan;100838.03;6264351;22;20389;-48
2021/08/17 06:26:28;;;;;;;3.65;1.75;;;;;;;14.99;nan;100839.03;6266538;22;20004;-49
2021/08/17 06:28:54;;;;;;;4.28;1.65;;;;;;;15.00;nan;100840.66;6239147;22;20007;-47
2021/08/17 06:31:22;;;;;;;6.10;1.80;;;;;;;15.15;nan;100847.91;6266775;22;19999;-47
2021/08/17 06:33:53;;;;;;;6.07;1.73;;;;;;;15.00;nan;100850.63;6266809;22;20004;-47
2021/08/17 06:36:19;;;;;;;7.10;1.60;;;;;;;15.06;nan;100849.53;6266134;22;20004;-49
2021/08/17 06:38:45;;;;;;;2.72;1.42;;;;;;;15.00;nan;100851.44;6266496;22;20058;-47
2021/08/17 06:41:11;;;;;;;6.45;1.90;;;;;;;14.98;nan;100860.91;6265548;22;20351;-49
2021/08/17 06:43:36;;;;;;;7.15;1.48;;;;;;;15.15;nan;100856.00;6267632;22;20027;-47
2021/08/17 06:46:03;;;;;;;5.38;1.70;;;;;;;15.29;nan;100870.53;6266614;22;20026;-47
2021/08/17 06:48:28;;;;;;;6.38;1.77;;;;;;;15.19;nan;100862.44;6266857;22;20011;-49
2021/08/17 06:50:54;;;;;;;8.88;1.85;;;;;;;15.39;nan;100866.94;6266098;22;20004;-48
2021/08/17 06:53:19;;;;;;;5.00;1.58;;;;;;;15.33;nan;100863.47;6266106;22;20007;-50
2021/08/17 06:55:45;;;;;;;7.18;1.95;;;;;;;15.22;nan;100859.19;6266046;22;20000;-48
2021/08/17 06:58:14;;;;;;;7.10;1.90;;;;;;;15.31;nan;100857.53;6265930;22;20008;-48
2021/08/17 07:00:45;;;;;;;3.55;1.30;;;;;;;15.32;nan;100867.25;6266376;22;20016;-48
2021/08/17 07:03:12;;;;;;;3.42;1.65;;;;;;;15.33;nan;100863.47;6266413;22;20000;-50
2021/08/17 07:05:40;;;;;;;5.50;1.67;;;;;;;15.37;nan;100867.22;6267121;22;20000;-49
2021/08/17 07:08:07;;;;;;;8.68;1.90;;;;;;;15.39;nan;100870.47;6238917;22;20076;-48
2021/08/17 07:10:36;;;;;;;5.72;1.60;;;;;;;15.50;nan;100859.63;6265644;22;20077;-49
2021/08/17 07:13:02;;;;;;;2.70;1.50;;;;;;;15.56;nan;100861.19;6266626;22;20056;-49
2021/08/17 07:15:27;;;;;;;5.32;1.58;;;;;;;15.87;nan;100856.47;6266974;22;20008;-49
2021/08/17 07:17:53;;;;;;;6.93;1.58;;;;;;;15.92;nan;100856.41;6266124;22;19999;-48
2021/08/17 07:20:19;;;;;;;5.53;1.42;;;;;;;16.19;nan;100853.25;6265840;22;20003;-47
2021/08/17 07:22:44;;;;;;;5.97;1.15;;;;;;;16.26;nan;100851.84;6238991;22;20074;-48
2021/08/17 07:25:10;;;;;;;2.80;1.35;;;;;;;16.45;nan;100865.47;6263397;22;20078;-49
2021/08/17 07:27:36;;;;;;;3.47;1.30;;;;;;;16.57;nan;100855.09;6266500;22;20347;-48
2021/08/17 07:30:03;;;;;;;3.10;1.45;;;;;;;17.07;nan;100858.38;6265646;22;20014;-49
2021/08/17 07:32:29;;;;;;;6.45;1.33;;;;;;;17.12;nan;100833.16;6238909;22;20065;-47
2021/08/17 07:34:54;;;;;;;4.85;1.67;;;;;;;17.22;nan;100854.66;6265779;22;20003;-50
2021/08/17 07:37:20;;;;;;;5.43;1.73;;;;;;;17.13;nan;100851.81;6266141;22;20030;-46
2021/08/17 07:39:46;;;;;;;5.20;1.80;;;;;;;17.06;nan;100854.06;6265468;22;20155;-47
2021/08/17 07:42:11;;;;;;;3.13;1.20;;;;;;;17.07;nan;100847.56;6264896;22;20003;-48
2021/08/17 07:44:36;;;;;;;5.90;1.50;;;;;;;17.19;nan;100857.94;6267067;22;20441;-47
2021/08/17 07:47:02;;;;;;;4.15;1.40;;;;;;;17.25;nan;100848.69;6265230;22;20000;-47
2021/08/17 07:49:28;;;;;;;2.67;0.98;;;;;;;16.86;nan;100843.44;6265750;22;20035;-48
2021/08/17 07:51:54;;;;;;;6.30;1.50;;;;;;;17.06;nan;100866.78;6238272;22;20080;-48
2021/08/17 07:54:20;;;;;;;4.28;1.33;;;;;;;16.66;nan;100865.28;6266261;22;20000;-48
2021/08/17 07:56:47;;;;;;;4.45;1.30;;;;;;;16.70;nan;100864.47;6265755;22;20006;-48
2021/08/17 07:59:12;;;;;;;6.53;1.27;;;;;;;16.68;nan;100865.81;6264919;22;20008;-48
2021/08/17 08:01:38;;;;;;;2.53;1.10;;;;;;;16.69;nan;100872.84;6265917;22;20043;-47
2021/08/17 08:04:03;;;;;;;5.10;1.27;;;;;;;16.70;nan;100869.06;6265074;22;20088;-47
2021/08/17 08:06:29;;;;;;;4.22;1.02;;;;;;;16.59;nan;100889.97;6264947;22;20097;-47
2021/08/17 08:08:55;;;;;;;6.78;1.42;;;;;;;16.65;nan;100877.19;6265131;22;20015;-48
2021/08/17 08:11:21;;;;;;;7.05;1.30;;;;;;;16.97;nan;100882.84;6265447;22;20008;-48
2021/08/17 08:13:46;;;;;;;4.05;1.30;;;;;;;17.01;nan;100878.47;6265265;22;20000;-47
2021/08/17 08:16:12;;;;;;;2.95;1.00;;;;;;;17.09;nan;100880.56;6265265;22;20328;-52
2021/08/17 08:18:37;;;;;;;3.20;1.35;;;;;;;16.92;nan;100891.84;6265940;22;20003;-46
2021/08/17 08:21:02;;;;;;;5.05;1.83;;;;;;;16.94;nan;100896.16;6234487;22;20031;-49
2021/08/17 08:23:28;;;;;;;4.72;1.33;;;;;;;17.13;nan;100900.53;6263718;22;20007;-49
2021/08/17 08:25:53;;;;;;;11.18;2.20;;;;;;;17.32;nan;100887.03;6260863;22;20011;-49
2021/08/17 08:28:19;;;;;;;11.63;1.65;;;;;;;17.19;nan;100888.53;6237917;22;19999;-48
2021/08/17 08:30:45;;;;;;;11.38;1.73;;;;;;;17.33;nan;100890.56;6264757;22;20003;-49
2021/08/17 08:33:11;;;;;;;7.90;1.48;;;;;;;17.30;nan;100891.16;6265170;22;20010;-47
2021/08/17 08:35:36;;;;;;;11.50;2.13;;;;;;;17.15;nan;100898.34;6264664;22;20035;-48
2021/08/17 08:38:02;;;;;;;3.13;1.63;;;;;;;17.24;nan;100905.84;6265279;22;20003;-47
2021/08/17 08:40:28;;;;;;;8.48;1.90;;;;;;;16.89;nan;100899.72;6264383;22;20003;-49
2021/08/17 08:42:54;;;;;;;5.07;1.92;;;;;;;16.95;nan;100886.94;6262539;22;20000;-48
2021/08/17 08:45:20;;;;;;;5.70;1.92;;;;;;;16.96;nan;100899.38;6265172;22;20007;-49
2021/08/17 08:47:46;;;;;;;9.30;1.83;;;;;;;16.79;nan;100900.63;6264006;22;20102;-48
2021/08/17 08:50:13;;;;;;;6.50;1.40;;;;;;;16.93;nan;100922.41;6237961;22;20011;-48
2021/08/17 08:52:39;;;;;;;5.80;1.20;;;;;;;17.20;nan;100922.66;6266084;22;20428;-49
2021/08/17 08:55:07;;;;;;;4.97;1.30;;;;;;;17.48;nan;100907.44;6266179;22;20057;-47
2021/08/17 08:57:32;;;;;;;11.55;1.92;;;;;;;17.68;nan;100925.34;6265515;22;20201;-48
2021/08/17 08:59:58;;;;;;;5.13;1.52;;;;;;;17.73;nan;100928.00;6265067;22;20034;-48
2021/08/17 09:02:29;;;;;;;9.38;1.52;;;;;;;17.38;nan;100923.00;6265158;22;20011;-47
2021/08/17 09:04:57;;;;;;;10.02;2.22;;;;;;;17.27;nan;100921.50;6264824;22;20003;-48
2021/08/17 09:07:33;;;;;;;4.25;1.60;;;;;;;17.35;nan;100924.38;6265644;22;20098;-48
2021/08/17 09:10:04;;;;;;;4.47;1.73;;;;;;;17.62;nan;100910.25;6265354;22;20004;-47
2021/08/17 09:12:38;;;;;;;3.67;1.45;;;;;;;17.46;nan;100914.25;6262683;22;20382;-48
2021/08/17 09:15:09;;;;;;;;;;;;;;;17.89;nan;100919.66;6266136;22;20251;-47
2021/08/17 09:17:34;;;;;;;3.58;1.50;;;;;;;18.22;nan;100899.66;6266755;22;20247;-50
2021/08/17 09:20:00;;;;;;;7.18;1.70;;;;;;;18.67;nan;100908.97;6265831;22;20018;-47
2021/08/17 09:22:28;;;;;;;11.30;1.75;;;;;;;18.46;nan;100891.38;6267315;22;20006;-48
2021/08/17 09:25:00;;;;;;;6.28;1.45;;;;;;;18.42;nan;100888.47;6264859;22;20008;-48
2021/08/17 09:27:28;;;;;;;4.70;1.33;;;;;;;19.01;nan;100888.78;6264992;22;20007;-47
2021/08/17 09:30:08;;;;;;;3.25;1.55;;;;;;;19.39;nan;100888.59;6266632;22;20003;-47
2021/08/17 09:32:34;;;;;;;6.25;1.30;;;;;;;19.22;nan;100897.38;6266769;22;20073;-47
2021/08/17 09:35:02;;;;;;;4.55;1.50;;;;;;;19.37;nan;100891.59;6266600;22;20011;-47
2021/08/17 09:37:33;;;;;;;4.43;1.38;;;;;;;19.29;nan;100895.84;6267374;22;20004;-46
2021/08/17 09:40:00;;;;;;;7.07;1.90;;;;;;;19.71;nan;100909.41;6239020;22;20008;-47
2021/08/17 09:42:31;;;;;;;6.70;1.35;;;;;;;19.79;nan;100897.84;6267413;22;20012;-48
2021/08/17 09:45:14;;;;;;;2.20;1.00;;;;;;;19.78;nan;100901.66;6266801;22;20053;-47
2021/08/17 09:47:54;;;;;;;2.00;1.30;;;;;;;19.64;nan;100900.88;6239666;22;20011;-48
2021/08/17 09:50:29;;;;;;;7.97;1.58;;;;;;;19.74;nan;100904.16;6267334;22;20111;-49
2021/08/17 09:53:15;;;;;;;2.38;1.00;;;;;;;19.60;nan;100906.13;6262040;22;20018;-48
2021/08/17 09:55:45;;;;;;;6.57;1.70;;;;;;;18.83;nan;100886.97;6265288;22;20082;-47
2021/08/17 09:58:18;;;;;;;9.57;1.70;;;;;;;19.20;nan;100908.50;6266799;22;20002;-51
2021/08/17 10:00:44;;;;;;;10.27;1.67;;;;;;;19.46;nan;100922.41;6265896;22;20006;-47
2021/08/17 10:03:10;;;;;;;5.57;1.10;;;;;;;19.07;nan;100913.97;6266741;22;20007;-49
2021/08/17 10:05:37;;;;;;;6.75;1.55;;;;;;;18.97;nan;100931.25;6266118;22;20007;-48
2021/08/17 10:08:05;;;;;;;3.15;1.20;;;;;;;19.20;nan;100924.81;6265840;22;20007;-48
2021/08/17 10:10:31;;;;;;;6.82;1.50;;;;;;;18.78;nan;100933.22;6266355;22;20031;-47
2021/08/17 10:12:56;;;;;;;4.78;1.20;;;;;;;18.84;nan;100930.09;6266159;22;20374;-46
2021/08/17 10:15:22;;;;;;;4.65;1.40;;;;;;;19.12;nan;100920.09;6264516;22;20004;-47
2021/08/17 10:17:48;;;;;;;4.50;1.23;;;;;;;18.79;nan;100930.19;6264489;22;19999;-47
2021/08/17 10:20:16;;;;;;;4.85;1.33;;;;;;;18.77;nan;100926.97;6266561;22;20003;-47
2021/08/17 10:22:43;;;;;;;8.27;1.30;;;;;;;18.52;nan;100930.09;6266351;22;20003;-48
2021/08/17 10:25:17;;;;;;;6.18;1.60;;;;;;;18.61;nan;100931.03;6261158;22;20007;-47
2021/08/17 10:27:43;;;;;;;12.05;2.15;;;;;;;18.89;nan;100946.31;6263604;22;20198;-47
2021/08/17 10:30:22;;;;;;;11.05;1.65;;;;;;;18.98;nan;100955.38;6264925;22;20007;-47
2021/08/17 10:32:54;;;;;;;23.20;1.95;;;;;;;19.02;nan;100953.66;6263785;22;20895;-49
2021/08/17 10:35:33;;;;;;;20.35;2.35;;;;;;;18.83;nan;100952.91;6238839;22;20500;-47
2021/08/17 10:38:10;;;;;;;3.75;1.35;;;;;;;19.57;nan;100940.16;6266306;22;20014;-46
2021/08/17 10:40:51;;;;;;;3.60;1.48;;;;;;;19.31;nan;100941.72;6264539;22;20000;-47
2021/08/17 10:43:43;;;;;;;7.05;2.00;;;;;;;18.45;nan;100954.06;6265741;22;20254;-49
2021/08/17 10:46:12;;;;;;;3.28;1.38;;;;;;;19.13;nan;100973.31;6265140;22;20031;-48
2021/08/17 10:48:43;;;;;;;4.28;1.58;;;;;;;18.92;nan;100955.78;6264082;22;20003;-46
2021/08/17 10:51:10;;;;;;;5.18;1.95;;;;;;;19.16;nan;100956.41;6266889;22;20007;-47
2021/08/17 10:53:37;;;;;;;4.25;1.75;;;;;;;18.68;nan;100964.06;6238039;22;20087;-48
2021/08/17 10:56:19;;;;;;;6.85;2.05;;;;;;;19.16;nan;100963.75;6261753;22;20086;-46
2021/08/17 10:58:48;;;;;;;10.63;2.30;;;;;;;19.14;nan;100947.75;6265064;22;20012;-47
2021/08/17 11:01:47;;;;;;;9.02;2.13;;;;;;;19.12;nan;100962.75;6265562;22;20073;-47
2021/08/17 11:04:12;;;;;;;14.60;2.47;;;;;;;19.01;nan;100965.63;6266252;22;20723;-47
2021/08/17 11:06:43;;;;;;;14.13;2.72;;;;;;;19.45;nan;100960.75;6263542;22;20099;-48
2021/08/17 11:09:18;;;;;;;7.60;1.80;;;;;;;19.14;nan;100963.25;6265833;22;20031;-47
2021/08/17 11:11:58;;;;;;;5.63;2.28;;;;;;;18.45;nan;100957.59;6265353;22;20008;-47
2021/08/17 11:14:26;;;;;;;7.70;2.10;;;;;;;18.45;nan;100967.66;6264910;22;20074;-46
2021/08/17 11:16:58;;;;;;;15.48;3.40;;;;;;;18.74;nan;100964.78;6264659;22;20082;-47
2021/08/17 11:19:28;;;;;;;4.78;1.80;;;;;;;19.09;nan;100960.63;6263020;22;20008;-48
2021/08/17 11:21:59;;;;;;;4.82;2.28;;;;;;;18.80;nan;100969.00;6265018;22;20014;-46
2021/08/17 11:24:30;;;;;;;4.45;1.52;;;;;;;19.80;nan;100965.50;6262036;22;20033;-46
2021/08/17 11:27:02;;;;;;;5.00;1.95;;;;;;;19.70;nan;100976.56;6266150;22;20107;-47
2021/08/17 11:29:29;;;;;;;4.68;1.70;;;;;;;19.98;nan;100955.59;6266156;22;20007;-47
2021/08/17 11:31:56;;;;;;;9.52;1.70;;;;;;;20.20;nan;100961.06;6238039;22;20004;-47
2021/08/17 11:34:25;;;;;;;16.10;2.90;;;;;;;20.20;nan;100952.91;6262491;22;20467;-48
2021/08/17 11:36:59;;;;;;;8.02;1.70;;;;;;;20.42;nan;100962.22;6262386;22;20520;-48
2021/08/17 11:39:38;;;;;;;3.75;1.52;;;;;;;19.87;nan;100952.28;6265103;22;20271;-51
2021/08/17 11:42:19;;;;;;;13.05;2.53;;;;;;;19.56;nan;100965.69;6264897;22;20016;-47